Chembulk Savannah — V7OP7 — position and weather

sailwx.info

Track history (hours):
 
Tides and Currents Weather Stations Pressure Air Temp Water Temp Dewpoint Dewpoint Depression Visibility Wind Speed Wind Dir Waves Ship Positions

Chembulk Savannah

Last reported at 2018-Jul-09 10:42 UTC. Time now 2018-Jul-16 17:47 UTC.
Position N 49°43' W 006°51'.

Length 153 m; draft 9.8 m.

Type: Ship (hazmat cat B). MMSI: 538006571.

Date/timePositionNaut miles runAvg speedWind from/ knotsBaromVisibWave heightAir tempDewpointWater temp
2018-Jul-09 10:42N 49°43' W 006°51'412.7
2018-Jul-09 10:24N 49°43' W 006°45'712.9
2018-Jul-09 09:51N 49°43' W 006°34'1113.3
2018-Jul-09 09:02N 49°43' W 006°18'113.8
2018-Jul-09 09:00N 49°43' W 006°17'613.3
2018-Jul-09 08:31N 49°44' W 006°07'713.5
2018-Jul-09 08:01N 49°44' W 005°56'713.7
2018-Jul-09 07:30N 49°44' W 005°46'713.7
2018-Jul-09 07:00N 49°44' W 005°35'713.7
2018-Jul-09 06:30N 49°44' W 005°24'713.9
2018-Jul-09 05:58N 49°45' W 005°13'511.1
2018-Jul-09 05:30N 49°45' W 005°05'612.6
2018-Jul-09 05:00N 49°45' W 004°55'713.4
2018-Jul-09 04:30N 49°46' W 004°45'713.3
2018-Jul-09 04:00N 49°47' W 004°35'713.3
2018-Jul-09 03:30N 49°49' W 004°25'613.0
2018-Jul-09 03:01N 49°50' W 004°15'612.8
2018-Jul-09 02:31N 49°51' W 004°05'612.7
2018-Jul-09 02:00N 49°52' W 003°56'612.6
2018-Jul-09 01:31N 49°53' W 003°46'712.6
2018-Jul-09 00:59N 49°54' W 003°36'612.9
2018-Jul-09 00:31N 49°55' W 003°26'713.1
2018-Jul-09 00:00N 49°57' W 003°16'713.4
2018-Jul-08 23:30N 49°58' W 003°06'713.9
2018-Jul-08 23:01N 49°59' W 002°56'914.4
2018-Jul-08 22:25N 50°02' W 002°43'614.7
2018-Jul-08 22:01N 50°03' W 002°34'4115.0
2018-Jul-08 19:15N 50°14' W 001°32'613.6
2018-Jul-08 18:50N 50°16' W 001°23'913.2
2018-Jul-08 18:10N 50°18' W 001°10'212.6
2018-Jul-08 18:00N 50°18' W 001°06'612.3
2018-Jul-08 17:30N 50°20' W 000°57'611.9
2018-Jul-08 17:00N 50°22' W 000°48'611.5
2018-Jul-08 16:30N 50°23' W 000°40'611.4
2018-Jul-08 16:00N 50°25' W 000°31'611.6
2018-Jul-08 15:30N 50°26' W 000°22'612.0
2018-Jul-08 15:00N 50°28' W 000°13'612.3
2018-Jul-08 14:30N 50°29' W 000°04'612.7
2018-Jul-08 14:00N 50°31' E 000°06'713.2
2018-Jul-08 13:30N 50°33' E 000°16'713.7
2018-Jul-08 13:00N 50°35' E 000°26'714.0
2018-Jul-08 12:30N 50°37' E 000°36'714.2
2018-Jul-08 12:00N 50°41' E 000°46'714.3
2018-Jul-08 11:30N 50°46' E 000°54'714.3
2018-Jul-08 11:00N 50°50' E 001°03'713.9
2018-Jul-08 10:30N 50°55' E 001°11'713.4
2018-Jul-08 10:01N 50°60' E 001°19'612.7
2018-Jul-08 09:30N 51°04' E 001°27'611.5
2018-Jul-08 09:01N 51°07' E 001°34'5 9.7
2018-Jul-08 08:31N 51°10' E 001°40'5 9.8
2018-Jul-08 08:01N 51°13' E 001°46'5 9.8
2018-Jul-08 07:31N 51°18' E 001°50'510.8
2018-Jul-08 07:00N 51°23' E 001°53'612.3
2018-Jul-08 06:31N 51°28' E 001°58'713.2
2018-Jul-08 06:01N 51°33' E 002°05'713.6
2018-Jul-08 05:30N 51°38' E 002°12'714.0
2018-Jul-08 05:00N 51°43' E 002°20'714.3
2018-Jul-08 04:30N 51°48' E 002°28'714.5
2018-Jul-08 04:00N 51°54' E 002°36'714.6
2018-Jul-08 03:30N 51°59' E 002°44'714.1
2018-Jul-08 03:00N 52°02' E 002°54'713.9
2018-Jul-08 02:30N 52°03' E 003°06'713.3
2018-Jul-08 02:00N 52°03' E 003°16'713.2
2018-Jul-08 01:30N 52°04' E 003°27'612.3
2018-Jul-08 01:00N 52°04' E 003°37'611.9
2018-Jul-08 00:30N 52°03' E 003°47'5 9.6
2018-Jul-08 00:00N 52°03' E 003°54'611.2
2018-Jul-07 23:30N 51°60' E 004°02'611.0
2018-Jul-07 23:00N 51°57' E 004°10'5 9.4
2018-Jul-07 22:30N 51°54' E 004°16'2 4.2
2018-Jul-07 22:00N 51°53' E 004°18'0 0.1
2018-Jul-07 18:38N 51°53' E 004°18'0 0.0
2018-Jul-07 17:05N 51°53' E 004°18'0 0.0
2018-Jul-07 16:56N 51°53' E 004°18'0 0.0
2018-Jul-07 14:53N 51°53' E 004°18'0 0.0
2018-Jul-07 09:02N 51°53' E 004°18'0 0.0
2018-Jul-07 04:05N 51°53' E 004°18'0 0.0
2018-Jul-07 03:53N 51°53' E 004°18'0 0.0
2018-Jul-06 20:16N 51°53' E 004°18'0 1.0
2018-Jul-06 20:01N 51°53' E 004°18'1 1.1
2018-Jul-06 19:30N 51°53' E 004°18'0 0.1
2018-Jul-06 17:36N 51°53' E 004°17'0 0.0
2018-Jul-06 17:06N 51°53' E 004°17'0 0.0
2018-Jul-06 16:54N 51°53' E 004°17'0 0.0
2018-Jul-06 15:42N 51°53' E 004°17'0 0.0
2018-Jul-06 15:27N 51°53' E 004°17'0 0.0
2018-Jul-06 14:54N 51°53' E 004°17'0 0.0
2018-Jul-06 14:30N 51°53' E 004°17'0 0.0
2018-Jul-06 13:42N 51°53' E 004°17'0 0.0
2018-Jul-06 13:30N 51°53' E 004°17'0 0.0
2018-Jul-06 13:00N 51°53' E 004°17'0 0.0
2018-Jul-06 11:42N 51°53' E 004°17'0 0.0
2018-Jul-06 11:30N 51°53' E 004°17'0 0.0
2018-Jul-06 11:00N 51°53' E 004°17'0 0.0
2018-Jul-06 10:18N 51°53' E 004°17'0 0.0
2018-Jul-06 09:42N 51°53' E 004°17'0 0.0
2018-Jul-06 09:30N 51°53' E 004°17'0 0.0
2018-Jul-06 08:54N 51°53' E 004°17'0 0.0
2018-Jul-06 08:30N 51°53' E 004°17'0 0.0
2018-Jul-06 07:54N 51°53' E 004°17'0 0.0
2018-Jul-06 07:30N 51°53' E 004°17'0 0.0
2018-Jul-06 04:48N 51°53' E 004°17'0 0.0
2018-Jul-06 04:24N 51°53' E 004°17'0 0.0
2018-Jul-06 03:48N 51°53' E 004°17'0 0.0
2018-Jul-05 19:00N 51°53' E 004°17'0 0.0
2018-Jul-05 17:30N 51°53' E 004°17'0 0.0
2018-Jul-05 17:00N 51°53' E 004°17'0 0.0
2018-Jul-05 14:36N 51°53' E 004°17'0 0.0
2018-Jul-05 13:48N 51°53' E 004°17'0 0.0
2018-Jul-05 13:30N 51°53' E 004°17'0 0.0
2018-Jul-05 09:54N 51°53' E 004°17'0 0.0
2018-Jul-05 09:12N 51°53' E 004°17'0 0.0
2018-Jul-05 07:54N 51°53' E 004°17'0 0.0
2018-Jul-05 07:30N 51°53' E 004°17'0 0.0
2018-Jul-05 07:00N 51°53' E 004°17'0 0.0
2018-Jul-05 06:24N 51°53' E 004°17'0 0.0
2018-Jul-05 03:12N 51°53' E 004°17'0 0.0
2018-Jul-05 02:06N 51°53' E 004°17'0 0.0
2018-Jul-04 17:30N 51°53' E 004°17'0 0.0
2018-Jul-04 17:00N 51°53' E 004°17'0 0.0
2018-Jul-04 15:54N 51°53' E 004°17'0 0.0
2018-Jul-04 15:00N 51°53' E 004°17'0 0.0
2018-Jul-04 14:18N 51°53' E 004°17'0 0.0
2018-Jul-04 13:42N 51°53' E 004°17'0 0.0
2018-Jul-04 13:30N 51°53' E 004°17'0 0.0
2018-Jul-04 13:00N 51°53' E 004°17'0 0.0
2018-Jul-04 12:30N 51°53' E 004°17'0 0.0
2018-Jul-04 11:48N 51°53' E 004°17'0 0.0
2018-Jul-04 10:36N 51°53' E 004°17'0 0.1
2018-Jul-04 10:30N 51°53' E 004°17'0 0.0
2018-Jul-04 09:48N 51°53' E 004°17'0 0.0
2018-Jul-04 09:24N 51°53' E 004°17'0 0.0
2018-Jul-04 09:00N 51°53' E 004°17'0 0.0
2018-Jul-04 08:30N 51°53' E 004°17'0 0.0
2018-Jul-04 08:00N 51°53' E 004°17'0 0.0
2018-Jul-04 07:30N 51°53' E 004°17'0 0.0
2018-Jul-04 06:54N 51°53' E 004°17'0 0.0
2018-Jul-04 06:30N 51°53' E 004°17'0 0.0
2018-Jul-04 05:54N 51°53' E 004°17'0 0.0
2018-Jul-04 05:30N 51°53' E 004°17'0 0.0
2018-Jul-04 04:54N 51°53' E 004°17'0 0.0
2018-Jul-04 04:24N 51°53' E 004°17'0 0.0
2018-Jul-04 03:48N 51°53' E 004°17'0 0.0
2018-Jul-04 00:54N 51°53' E 004°17'0 0.0
2018-Jul-03 23:42N 51°53' E 004°17'0 0.0
2018-Jul-03 23:30N 51°53' E 004°17'0 0.0
2018-Jul-03 22:54N 51°53' E 004°17'0 0.0
2018-Jul-03 22:30N 51°53' E 004°17'0 0.0
2018-Jul-03 20:36N 51°53' E 004°17'0 0.0
2018-Jul-03 20:24N 51°53' E 004°17'0 0.0
2018-Jul-03 19:54N 51°53' E 004°17'0 0.0
2018-Jul-03 18:36N 51°53' E 004°17'0 0.0
2018-Jul-03 17:36N 51°53' E 004°17'0 0.0
2018-Jul-03 17:06N 51°53' E 004°17'0 0.0
2018-Jul-03 12:36N 51°53' E 004°17'0 0.0
2018-Jul-03 12:30N 51°53' E 004°17'0 0.0
2018-Jul-03 12:00N 51°53' E 004°17'0 0.0
2018-Jul-03 11:30N 51°53' E 004°17'0 0.0
2018-Jul-03 11:00N 51°53' E 004°17'0 0.0
2018-Jul-03 09:30N 51°53' E 004°17'0 0.0
2018-Jul-03 09:00N 51°53' E 004°17'0 0.0
2018-Jul-03 08:30N 51°53' E 004°17'0 0.0
2018-Jul-03 08:00N 51°53' E 004°17'0 0.0
2018-Jul-03 06:00N 51°53' E 004°17'0 0.0
2018-Jul-03 04:48N 51°53' E 004°17'0 0.0
2018-Jul-03 04:18N 51°53' E 004°17'0 0.0
2018-Jul-03 04:00N 51°53' E 004°17'0 0.0
2018-Jul-03 03:30N 51°53' E 004°17'0 0.0
2018-Jul-03 02:48N 51°53' E 004°17'0 0.0
2018-Jul-03 02:30N 51°53' E 004°17'0 0.0
2018-Jul-03 01:54N 51°53' E 004°17'0 0.0
2018-Jul-02 23:54N 51°53' E 004°17'0 0.0
2018-Jul-02 23:30N 51°53' E 004°17'0 0.0
2018-Jul-02 21:24N 51°53' E 004°17'0 0.0
2018-Jul-02 21:00N 51°53' E 004°17'0 0.0
2018-Jul-02 19:42N 51°53' E 004°17'0 0.0
2018-Jul-02 18:30N 51°53' E 004°17'0 0.0
2018-Jul-02 17:12N 51°53' E 004°17'0 0.0
2018-Jul-02 16:06N 51°53' E 004°17'0 0.0
2018-Jul-02 16:00N 51°53' E 004°17'0 0.0
2018-Jul-02 15:30N 51°53' E 004°17'0 0.0
2018-Jul-02 14:06N 51°53' E 004°17'0 0.0
2018-Jul-02 13:42N 51°53' E 004°17'0 0.0
2018-Jul-02 13:24N 51°53' E 004°17'0 0.0
2018-Jul-02 13:00N 51°53' E 004°17'0 0.0
2018-Jul-02 12:12N 51°53' E 004°17'0 0.0
2018-Jul-02 11:42N 51°53' E 004°17'0 0.0
2018-Jul-02 10:48N 51°53' E 004°17'0 0.0
2018-Jul-02 10:24N 51°53' E 004°17'0 0.0
2018-Jul-02 09:54N 51°53' E 004°17'0 0.0
2018-Jul-02 09:30N 51°53' E 004°17'0 0.0
2018-Jul-02 09:00N 51°53' E 004°17'0 0.0
2018-Jul-02 07:54N 51°53' E 004°17'0 0.0
2018-Jul-02 07:30N 51°53' E 004°17'0 0.0
2018-Jul-02 06:54N 51°53' E 004°17'0 0.0
2018-Jul-02 06:30N 51°53' E 004°17'0 0.0
2018-Jul-02 05:54N 51°53' E 004°17'0 0.0
2018-Jul-02 01:42N 51°53' E 004°17'0 0.0
2018-Jul-02 01:12N 51°53' E 004°17'0 0.0
2018-Jul-02 00:42N 51°53' E 004°17'0 0.0
2018-Jul-02 00:18N 51°53' E 004°17'0 0.0
2018-Jul-01 23:54N 51°53' E 004°17'0 0.0
2018-Jul-01 23:27N 51°53' E 004°17'0 0.0
2018-Jul-01 22:33N 51°53' E 004°17'0 0.0
2018-Jul-01 22:30N 51°53' E 004°17'0 0.0
2018-Jul-01 22:00N 51°53' E 004°17'0 0.0
2018-Jul-01 21:30N 51°53' E 004°17'0 0.0
2018-Jul-01 21:00N 51°53' E 004°17'0 0.0
2018-Jul-01 20:30N 51°53' E 004°17'0 0.0
2018-Jul-01 19:00N 51°53' E 004°17'0 0.0
2018-Jul-01 18:30N 51°53' E 004°17'0 0.0
2018-Jul-01 17:30N 51°53' E 004°17'0 0.0
2018-Jul-01 17:00N 51°53' E 004°17'0 0.0
2018-Jul-01 16:18N 51°53' E 004°17'0 0.0
2018-Jul-01 15:54N 51°53' E 004°17'0 0.0
2018-Jul-01 14:30N 51°53' E 004°17'0 0.0
2018-Jul-01 13:48N 51°53' E 004°17'0 0.0
2018-Jul-01 13:30N 51°53' E 004°17'0 0.0
2018-Jul-01 13:00N 51°53' E 004°17'0 0.0
2018-Jul-01 12:21N 51°53' E 004°17'0 0.0
2018-Jul-01 11:42N 51°53' E 004°17'0 0.5
2018-Jul-01 11:30N 51°53' E 004°17'1 1.2
2018-Jul-01 11:00N 51°53' E 004°17'0 0.0
2018-Jul-01 10:24N 51°53' E 004°17'0 0.0
2018-Jul-01 10:00N 51°53' E 004°17'0 0.0
2018-Jul-01 09:24N 51°53' E 004°17'0 0.0
2018-Jul-01 09:00N 51°53' E 004°17'0 0.0
2018-Jul-01 08:30N 51°53' E 004°17'0 0.0
2018-Jul-01 08:00N 51°53' E 004°17'0 0.0
2018-Jul-01 07:30N 51°53' E 004°17'0 0.0
2018-Jul-01 07:00N 51°53' E 004°17'0 0.0
2018-Jul-01 06:30N 51°53' E 004°17'0 0.0
2018-Jul-01 05:54N 51°53' E 004°17'0 0.0
2018-Jul-01 05:30N 51°53' E 004°17'0 0.0
2018-Jul-01 04:42N 51°53' E 004°17'0 0.0
2018-Jul-01 04:30N 51°53' E 004°17'0 0.0
2018-Jul-01 04:00N 51°53' E 004°17'0 0.0
2018-Jul-01 03:30N 51°53' E 004°17'0 0.0
2018-Jul-01 02:57N 51°53' E 004°17'0 0.0
2018-Jul-01 02:18N 51°53' E 004°17'0 0.0
2018-Jul-01 02:00N 51°53' E 004°17'0 0.0
2018-Jul-01 01:24N 51°53' E 004°17'0 0.0
2018-Jul-01 01:00N 51°53' E 004°17'0 0.0
2018-Jul-01 00:21N 51°53' E 004°17'0 0.0
2018-Jul-01 00:00N 51°53' E 004°17'0 0.0
2018-Jun-30 23:27N 51°53' E 004°17'0 0.0
2018-Jun-30 22:51N 51°53' E 004°17'0 0.0
2018-Jun-30 22:30N 51°53' E 004°17'0 0.0
2018-Jun-30 22:00N 51°53' E 004°17'0 0.0
2018-Jun-30 21:30N 51°53' E 004°17'0 0.0
2018-Jun-30 21:00N 51°53' E 004°17'0 0.0
2018-Jun-30 20:27N 51°53' E 004°17'0 0.0
2018-Jun-30 20:00N 51°53' E 004°17'0 0.0
2018-Jun-30 19:24N 51°53' E 004°17'0 0.0
2018-Jun-30 18:57N 51°53' E 004°17'0 0.0
2018-Jun-30 18:27N 51°53' E 004°17'0 0.0
2018-Jun-30 18:00N 51°53' E 004°17'0 0.0
2018-Jun-30 17:30N 51°53' E 004°17'0 0.0
2018-Jun-30 16:51N 51°53' E 004°17'0 0.0
2018-Jun-30 16:18N 51°53' E 004°17'0 0.0
2018-Jun-30 16:00N 51°53' E 004°17'0 0.0
2018-Jun-30 15:30N 51°53' E 004°17'0 0.0
2018-Jun-30 14:57N 51°53' E 004°17'0 0.0
2018-Jun-30 14:30N 51°53' E 004°17'0 0.0
2018-Jun-30 13:48N 51°53' E 004°17'0 0.0
2018-Jun-30 13:27N 51°53' E 004°17'0 0.0
2018-Jun-30 13:00N 51°53' E 004°17'0 0.0
2018-Jun-30 12:27N 51°53' E 004°17'0 0.0
2018-Jun-30 12:00N 51°53' E 004°17'0 0.0
2018-Jun-30 11:24N 51°53' E 004°17'0 0.0
2018-Jun-30 11:00N 51°53' E 004°17'0 0.0
2018-Jun-30 10:30N 51°53' E 004°17'0 0.4
2018-Jun-30 10:00N 51°53' E 004°17'0 0.3
2018-Jun-30 09:05N 51°53' E 004°17'0 0.0
2018-Jun-30 08:50N 51°53' E 004°17'0 0.0
2018-Jun-30 08:23N 51°53' E 004°17'0 0.0
2018-Jun-30 07:59N 51°53' E 004°17'0 0.0
2018-Jun-30 06:29N 51°53' E 004°17'0 0.0
2018-Jun-30 05:17N 51°53' E 004°17'0 0.0
2018-Jun-30 04:41N 51°53' E 004°17'0 0.0
2018-Jun-30 04:23N 51°53' E 004°17'0 0.0
2018-Jun-30 03:59N 51°53' E 004°17'0 0.0
2018-Jun-30 03:11N 51°53' E 004°17'0 0.0
2018-Jun-30 02:53N 51°53' E 004°17'0 0.0
2018-Jun-30 02:17N 51°53' E 004°17'0 0.0
2018-Jun-30 01:47N 51°53' E 004°17'0 0.0
2018-Jun-30 01:29N 51°53' E 004°17'0 0.0
2018-Jun-30 00:59N 51°53' E 004°17'0 0.0
2018-Jun-30 00:29N 51°53' E 004°17'0 0.0
2018-Jun-29 23:47N 51°53' E 004°17'0 0.0
2018-Jun-29 23:17N 51°53' E 004°17'0 0.0
2018-Jun-29 22:41N 51°53' E 004°17'0 0.0
2018-Jun-29 22:29N 51°53' E 004°17'0 0.0
2018-Jun-29 21:53N 51°53' E 004°17'0 0.0
2018-Jun-29 21:29N 51°53' E 004°17'0 0.0
2018-Jun-29 20:59N 51°53' E 004°17'0 0.0
2018-Jun-29 20:23N 51°53' E 004°17'0 0.0
2018-Jun-29 19:35N 51°53' E 004°17'0 0.0
2018-Jun-29 19:11N 51°53' E 004°17'0 0.1
2018-Jun-29 18:59N 51°53' E 004°17'0 0.0
2018-Jun-29 18:23N 51°53' E 004°17'0 0.0
2018-Jun-29 17:41N 51°53' E 004°17'0 0.0
2018-Jun-29 17:29N 51°53' E 004°17'0 0.0
2018-Jun-29 16:59N 51°53' E 004°17'0 0.0
2018-Jun-29 16:20N 51°53' E 004°17'0 0.0
2018-Jun-29 15:41N 51°53' E 004°17'0 0.0
2018-Jun-29 15:29N 51°53' E 004°17'0 0.0
2018-Jun-29 14:59N 51°53' E 004°17'0 0.0
2018-Jun-29 14:26N 51°53' E 004°17'0 0.0
2018-Jun-29 13:44N 51°53' E 004°17'0 0.0
2018-Jun-29 11:53N 51°53' E 004°17'0 0.0
2018-Jun-29 11:17N 51°53' E 004°17'0 0.0
2018-Jun-29 10:53N 51°53' E 004°17'  
Track history (hours):
 
Tides and Currents Weather Stations Pressure Air Temp Water Temp Dewpoint Dewpoint Depression Visibility Wind Speed Wind Dir Waves Ship Positions

Chembulk Savannah

Last reported at 2018-Jul-09 10:42 UTC. Time now 2018-Jul-16 17:47 UTC.
Position N 49°43' W 006°51'.

Length 153 m; draft 9.8 m.

Type: Ship (hazmat cat B). MMSI: 538006571.

Date/timePositionNaut miles runAvg speedWind from/ knotsBaromVisibWave heightAir tempDewpointWater temp
2018-Jul-09 10:42N 49°43' W 006°51'412.7
2018-Jul-09 10:24N 49°43' W 006°45'712.9
2018-Jul-09 09:51N 49°43' W 006°34'1113.3
2018-Jul-09 09:02N 49°43' W 006°18'113.8
2018-Jul-09 09:00N 49°43' W 006°17'613.3
2018-Jul-09 08:31N 49°44' W 006°07'713.5
2018-Jul-09 08:01N 49°44' W 005°56'713.7
2018-Jul-09 07:30N 49°44' W 005°46'713.7
2018-Jul-09 07:00N 49°44' W 005°35'713.7
2018-Jul-09 06:30N 49°44' W 005°24'713.9
2018-Jul-09 05:58N 49°45' W 005°13'511.1
2018-Jul-09 05:30N 49°45' W 005°05'612.6
2018-Jul-09 05:00N 49°45' W 004°55'713.4
2018-Jul-09 04:30N 49°46' W 004°45'713.3
2018-Jul-09 04:00N 49°47' W 004°35'713.3
2018-Jul-09 03:30N 49°49' W 004°25'613.0
2018-Jul-09 03:01N 49°50' W 004°15'612.8
2018-Jul-09 02:31N 49°51' W 004°05'612.7
2018-Jul-09 02:00N 49°52' W 003°56'612.6
2018-Jul-09 01:31N 49°53' W 003°46'712.6
2018-Jul-09 00:59N 49°54' W 003°36'612.9
2018-Jul-09 00:31N 49°55' W 003°26'713.1
2018-Jul-09 00:00N 49°57' W 003°16'713.4
2018-Jul-08 23:30N 49°58' W 003°06'713.9
2018-Jul-08 23:01N 49°59' W 002°56'914.4
2018-Jul-08 22:25N 50°02' W 002°43'614.7
2018-Jul-08 22:01N 50°03' W 002°34'4115.0
2018-Jul-08 19:15N 50°14' W 001°32'613.6
2018-Jul-08 18:50N 50°16' W 001°23'913.2
2018-Jul-08 18:10N 50°18' W 001°10'212.6
2018-Jul-08 18:00N 50°18' W 001°06'612.3
2018-Jul-08 17:30N 50°20' W 000°57'611.9
2018-Jul-08 17:00N 50°22' W 000°48'611.5
2018-Jul-08 16:30N 50°23' W 000°40'611.4
2018-Jul-08 16:00N 50°25' W 000°31'611.6
2018-Jul-08 15:30N 50°26' W 000°22'612.0
2018-Jul-08 15:00N 50°28' W 000°13'612.3
2018-Jul-08 14:30N 50°29' W 000°04'612.7
2018-Jul-08 14:00N 50°31' E 000°06'713.2
2018-Jul-08 13:30N 50°33' E 000°16'713.7
2018-Jul-08 13:00N 50°35' E 000°26'714.0
2018-Jul-08 12:30N 50°37' E 000°36'714.2
2018-Jul-08 12:00N 50°41' E 000°46'714.3
2018-Jul-08 11:30N 50°46' E 000°54'714.3
2018-Jul-08 11:00N 50°50' E 001°03'713.9
2018-Jul-08 10:30N 50°55' E 001°11'713.4
2018-Jul-08 10:01N 50°60' E 001°19'612.7
2018-Jul-08 09:30N 51°04' E 001°27'611.5
2018-Jul-08 09:01N 51°07' E 001°34'5 9.7
2018-Jul-08 08:31N 51°10' E 001°40'5 9.8
2018-Jul-08 08:01N 51°13' E 001°46'5 9.8
2018-Jul-08 07:31N 51°18' E 001°50'510.8
2018-Jul-08 07:00N 51°23' E 001°53'612.3
2018-Jul-08 06:31N 51°28' E 001°58'713.2
2018-Jul-08 06:01N 51°33' E 002°05'713.6
2018-Jul-08 05:30N 51°38' E 002°12'714.0
2018-Jul-08 05:00N 51°43' E 002°20'714.3
2018-Jul-08 04:30N 51°48' E 002°28'714.5
2018-Jul-08 04:00N 51°54' E 002°36'714.6
2018-Jul-08 03:30N 51°59' E 002°44'714.1
2018-Jul-08 03:00N 52°02' E 002°54'713.9
2018-Jul-08 02:30N 52°03' E 003°06'713.3
2018-Jul-08 02:00N 52°03' E 003°16'713.2
2018-Jul-08 01:30N 52°04' E 003°27'612.3
2018-Jul-08 01:00N 52°04' E 003°37'611.9
2018-Jul-08 00:30N 52°03' E 003°47'5 9.6
2018-Jul-08 00:00N 52°03' E 003°54'611.2
2018-Jul-07 23:30N 51°60' E 004°02'611.0
2018-Jul-07 23:00N 51°57' E 004°10'5 9.4
2018-Jul-07 22:30N 51°54' E 004°16'2 4.2
2018-Jul-07 22:00N 51°53' E 004°18'0 0.1
2018-Jul-07 18:38N 51°53' E 004°18'0 0.0
2018-Jul-07 17:05N 51°53' E 004°18'0 0.0
2018-Jul-07 16:56N 51°53' E 004°18'0 0.0
2018-Jul-07 14:53N 51°53' E 004°18'0 0.0
2018-Jul-07 09:02N 51°53' E 004°18'0 0.0
2018-Jul-07 04:05N 51°53' E 004°18'0 0.0
2018-Jul-07 03:53N 51°53' E 004°18'0 0.0
2018-Jul-06 20:16N 51°53' E 004°18'0 1.0
2018-Jul-06 20:01N 51°53' E 004°18'1 1.1
2018-Jul-06 19:30N 51°53' E 004°18'0 0.1
2018-Jul-06 17:36N 51°53' E 004°17'0 0.0
2018-Jul-06 17:06N 51°53' E 004°17'0 0.0
2018-Jul-06 16:54N 51°53' E 004°17'0 0.0
2018-Jul-06 15:42N 51°53' E 004°17'0 0.0
2018-Jul-06 15:27N 51°53' E 004°17'0 0.0
2018-Jul-06 14:54N 51°53' E 004°17'0 0.0
2018-Jul-06 14:30N 51°53' E 004°17'0 0.0
2018-Jul-06 13:42N 51°53' E 004°17'0 0.0
2018-Jul-06 13:30N 51°53' E 004°17'0 0.0
2018-Jul-06 13:00N 51°53' E 004°17'0 0.0
2018-Jul-06 11:42N 51°53' E 004°17'0 0.0
2018-Jul-06 11:30N 51°53' E 004°17'0 0.0
2018-Jul-06 11:00N 51°53' E 004°17'0 0.0
2018-Jul-06 10:18N 51°53' E 004°17'0 0.0
2018-Jul-06 09:42N 51°53' E 004°17'0 0.0
2018-Jul-06 09:30N 51°53' E 004°17'0 0.0
2018-Jul-06 08:54N 51°53' E 004°17'0 0.0
2018-Jul-06 08:30N 51°53' E 004°17'0 0.0
2018-Jul-06 07:54N 51°53' E 004°17'0 0.0
2018-Jul-06 07:30N 51°53' E 004°17'0 0.0
2018-Jul-06 04:48N 51°53' E 004°17'0 0.0
2018-Jul-06 04:24N 51°53' E 004°17'0 0.0
2018-Jul-06 03:48N 51°53' E 004°17'0 0.0
2018-Jul-05 19:00N 51°53' E 004°17'0 0.0
2018-Jul-05 17:30N 51°53' E 004°17'0 0.0
2018-Jul-05 17:00N 51°53' E 004°17'0 0.0
2018-Jul-05 14:36N 51°53' E 004°17'0 0.0
2018-Jul-05 13:48N 51°53' E 004°17'0 0.0
2018-Jul-05 13:30N 51°53' E 004°17'0 0.0
2018-Jul-05 09:54N 51°53' E 004°17'0 0.0
2018-Jul-05 09:12N 51°53' E 004°17'0 0.0
2018-Jul-05 07:54N 51°53' E 004°17'0 0.0
2018-Jul-05 07:30N 51°53' E 004°17'0 0.0
2018-Jul-05 07:00N 51°53' E 004°17'0 0.0
2018-Jul-05 06:24N 51°53' E 004°17'0 0.0
2018-Jul-05 03:12N 51°53' E 004°17'0 0.0
2018-Jul-05 02:06N 51°53' E 004°17'0 0.0
2018-Jul-04 17:30N 51°53' E 004°17'0 0.0
2018-Jul-04 17:00N 51°53' E 004°17'0 0.0
2018-Jul-04 15:54N 51°53' E 004°17'0 0.0
2018-Jul-04 15:00N 51°53' E 004°17'0 0.0
2018-Jul-04 14:18N 51°53' E 004°17'0 0.0
2018-Jul-04 13:42N 51°53' E 004°17'0 0.0
2018-Jul-04 13:30N 51°53' E 004°17'0 0.0
2018-Jul-04 13:00N 51°53' E 004°17'0 0.0
2018-Jul-04 12:30N 51°53' E 004°17'0 0.0
2018-Jul-04 11:48N 51°53' E 004°17'0 0.0
2018-Jul-04 10:36N 51°53' E 004°17'0 0.1
2018-Jul-04 10:30N 51°53' E 004°17'0 0.0
2018-Jul-04 09:48N 51°53' E 004°17'0 0.0
2018-Jul-04 09:24N 51°53' E 004°17'0 0.0
2018-Jul-04 09:00N 51°53' E 004°17'0 0.0
2018-Jul-04 08:30N 51°53' E 004°17'0 0.0
2018-Jul-04 08:00N 51°53' E 004°17'0 0.0
2018-Jul-04 07:30N 51°53' E 004°17'0 0.0
2018-Jul-04 06:54N 51°53' E 004°17'0 0.0
2018-Jul-04 06:30N 51°53' E 004°17'0 0.0
2018-Jul-04 05:54N 51°53' E 004°17'0 0.0
2018-Jul-04 05:30N 51°53' E 004°17'0 0.0
2018-Jul-04 04:54N 51°53' E 004°17'0 0.0
2018-Jul-04 04:24N 51°53' E 004°17'0 0.0
2018-Jul-04 03:48N 51°53' E 004°17'0 0.0
2018-Jul-04 00:54N 51°53' E 004°17'0 0.0
2018-Jul-03 23:42N 51°53' E 004°17'0 0.0
2018-Jul-03 23:30N 51°53' E 004°17'0 0.0
2018-Jul-03 22:54N 51°53' E 004°17'0 0.0
2018-Jul-03 22:30N 51°53' E 004°17'0 0.0
2018-Jul-03 20:36N 51°53' E 004°17'0 0.0
2018-Jul-03 20:24N 51°53' E 004°17'0 0.0
2018-Jul-03 19:54N 51°53' E 004°17'0 0.0
2018-Jul-03 18:36N 51°53' E 004°17'0 0.0
2018-Jul-03 17:36N 51°53' E 004°17'0 0.0
2018-Jul-03 17:06N 51°53' E 004°17'0 0.0
2018-Jul-03 12:36N 51°53' E 004°17'0 0.0
2018-Jul-03 12:30N 51°53' E 004°17'0 0.0
2018-Jul-03 12:00N 51°53' E 004°17'0 0.0
2018-Jul-03 11:30N 51°53' E 004°17'0 0.0
2018-Jul-03 11:00N 51°53' E 004°17'0 0.0
2018-Jul-03 09:30N 51°53' E 004°17'0 0.0
2018-Jul-03 09:00N 51°53' E 004°17'0 0.0
2018-Jul-03 08:30N 51°53' E 004°17'0 0.0
2018-Jul-03 08:00N 51°53' E 004°17'0 0.0
2018-Jul-03 06:00N 51°53' E 004°17'0 0.0
2018-Jul-03 04:48N 51°53' E 004°17'0 0.0
2018-Jul-03 04:18N 51°53' E 004°17'0 0.0
2018-Jul-03 04:00N 51°53' E 004°17'0 0.0
2018-Jul-03 03:30N 51°53' E 004°17'0 0.0
2018-Jul-03 02:48N 51°53' E 004°17'0 0.0
2018-Jul-03 02:30N 51°53' E 004°17'0 0.0
2018-Jul-03 01:54N 51°53' E 004°17'0 0.0
2018-Jul-02 23:54N 51°53' E 004°17'0 0.0
2018-Jul-02 23:30N 51°53' E 004°17'0 0.0
2018-Jul-02 21:24N 51°53' E 004°17'0 0.0
2018-Jul-02 21:00N 51°53' E 004°17'0 0.0
2018-Jul-02 19:42N 51°53' E 004°17'0 0.0
2018-Jul-02 18:30N 51°53' E 004°17'0 0.0
2018-Jul-02 17:12N 51°53' E 004°17'0 0.0
2018-Jul-02 16:06N 51°53' E 004°17'0 0.0
2018-Jul-02 16:00N 51°53' E 004°17'0 0.0
2018-Jul-02 15:30N 51°53' E 004°17'0 0.0
2018-Jul-02 14:06N 51°53' E 004°17'0 0.0
2018-Jul-02 13:42N 51°53' E 004°17'0 0.0
2018-Jul-02 13:24N 51°53' E 004°17'0 0.0
2018-Jul-02 13:00N 51°53' E 004°17'0 0.0
2018-Jul-02 12:12N 51°53' E 004°17'0 0.0
2018-Jul-02 11:42N 51°53' E 004°17'0 0.0
2018-Jul-02 10:48N 51°53' E 004°17'0 0.0
2018-Jul-02 10:24N 51°53' E 004°17'0 0.0
2018-Jul-02 09:54N 51°53' E 004°17'0 0.0
2018-Jul-02 09:30N 51°53' E 004°17'0 0.0
2018-Jul-02 09:00N 51°53' E 004°17'0 0.0
2018-Jul-02 07:54N 51°53' E 004°17'0 0.0
2018-Jul-02 07:30N 51°53' E 004°17'0 0.0
2018-Jul-02 06:54N 51°53' E 004°17'0 0.0
2018-Jul-02 06:30N 51°53' E 004°17'0 0.0
2018-Jul-02 05:54N 51°53' E 004°17'0 0.0
2018-Jul-02 01:42N 51°53' E 004°17'0 0.0
2018-Jul-02 01:12N 51°53' E 004°17'0 0.0
2018-Jul-02 00:42N 51°53' E 004°17'0 0.0
2018-Jul-02 00:18N 51°53' E 004°17'0 0.0
2018-Jul-01 23:54N 51°53' E 004°17'0 0.0
2018-Jul-01 23:27N 51°53' E 004°17'0 0.0
2018-Jul-01 22:33N 51°53' E 004°17'0 0.0
2018-Jul-01 22:30N 51°53' E 004°17'0 0.0
2018-Jul-01 22:00N 51°53' E 004°17'0 0.0
2018-Jul-01 21:30N 51°53' E 004°17'0 0.0
2018-Jul-01 21:00N 51°53' E 004°17'0 0.0
2018-Jul-01 20:30N 51°53' E 004°17'0 0.0
2018-Jul-01 19:00N 51°53' E 004°17'0 0.0
2018-Jul-01 18:30N 51°53' E 004°17'0 0.0
2018-Jul-01 17:30N 51°53' E 004°17'0 0.0
2018-Jul-01 17:00N 51°53' E 004°17'0 0.0
2018-Jul-01 16:18N 51°53' E 004°17'0 0.0
2018-Jul-01 15:54N 51°53' E 004°17'0 0.0
2018-Jul-01 14:30N 51°53' E 004°17'0 0.0
2018-Jul-01 13:48N 51°53' E 004°17'0 0.0
2018-Jul-01 13:30N 51°53' E 004°17'0 0.0
2018-Jul-01 13:00N 51°53' E 004°17'0 0.0
2018-Jul-01 12:21N 51°53' E 004°17'0 0.0
2018-Jul-01 11:42N 51°53' E 004°17'0 0.5
2018-Jul-01 11:30N 51°53' E 004°17'1 1.2
2018-Jul-01 11:00N 51°53' E 004°17'0 0.0
2018-Jul-01 10:24N 51°53' E 004°17'0 0.0
2018-Jul-01 10:00N 51°53' E 004°17'0 0.0
2018-Jul-01 09:24N 51°53' E 004°17'0 0.0
2018-Jul-01 09:00N 51°53' E 004°17'0 0.0
2018-Jul-01 08:30N 51°53' E 004°17'0 0.0
2018-Jul-01 08:00N 51°53' E 004°17'0 0.0
2018-Jul-01 07:30N 51°53' E 004°17'0 0.0
2018-Jul-01 07:00N 51°53' E 004°17'0 0.0
2018-Jul-01 06:30N 51°53' E 004°17'0 0.0
2018-Jul-01 05:54N 51°53' E 004°17'0 0.0
2018-Jul-01 05:30N 51°53' E 004°17'0 0.0
2018-Jul-01 04:42N 51°53' E 004°17'0 0.0
2018-Jul-01 04:30N 51°53' E 004°17'0 0.0
2018-Jul-01 04:00N 51°53' E 004°17'0 0.0
2018-Jul-01 03:30N 51°53' E 004°17'0 0.0
2018-Jul-01 02:57N 51°53' E 004°17'0 0.0
2018-Jul-01 02:18N 51°53' E 004°17'0 0.0
2018-Jul-01 02:00N 51°53' E 004°17'0 0.0
2018-Jul-01 01:24N 51°53' E 004°17'0 0.0
2018-Jul-01 01:00N 51°53' E 004°17'0 0.0
2018-Jul-01 00:21N 51°53' E 004°17'0 0.0
2018-Jul-01 00:00N 51°53' E 004°17'0 0.0
2018-Jun-30 23:27N 51°53' E 004°17'0 0.0
2018-Jun-30 22:51N 51°53' E 004°17'0 0.0
2018-Jun-30 22:30N 51°53' E 004°17'0 0.0
2018-Jun-30 22:00N 51°53' E 004°17'0 0.0
2018-Jun-30 21:30N 51°53' E 004°17'0 0.0
2018-Jun-30 21:00N 51°53' E 004°17'0 0.0
2018-Jun-30 20:27N 51°53' E 004°17'0 0.0
2018-Jun-30 20:00N 51°53' E 004°17'0 0.0
2018-Jun-30 19:24N 51°53' E 004°17'0 0.0
2018-Jun-30 18:57N 51°53' E 004°17'0 0.0
2018-Jun-30 18:27N 51°53' E 004°17'0 0.0
2018-Jun-30 18:00N 51°53' E 004°17'0 0.0
2018-Jun-30 17:30N 51°53' E 004°17'0 0.0
2018-Jun-30 16:51N 51°53' E 004°17'0 0.0
2018-Jun-30 16:18N 51°53' E 004°17'0 0.0
2018-Jun-30 16:00N 51°53' E 004°17'0 0.0
2018-Jun-30 15:30N 51°53' E 004°17'0 0.0
2018-Jun-30 14:57N 51°53' E 004°17'0 0.0
2018-Jun-30 14:30N 51°53' E 004°17'0 0.0
2018-Jun-30 13:48N 51°53' E 004°17'0 0.0
2018-Jun-30 13:27N 51°53' E 004°17'0 0.0
2018-Jun-30 13:00N 51°53' E 004°17'0 0.0
2018-Jun-30 12:27N 51°53' E 004°17'0 0.0
2018-Jun-30 12:00N 51°53' E 004°17'0 0.0
2018-Jun-30 11:24N 51°53' E 004°17'0 0.0
2018-Jun-30 11:00N 51°53' E 004°17'0 0.0
2018-Jun-30 10:30N 51°53' E 004°17'0 0.4
2018-Jun-30 10:00N 51°53' E 004°17'0 0.3
2018-Jun-30 09:05N 51°53' E 004°17'0 0.0
2018-Jun-30 08:50N 51°53' E 004°17'0 0.0
2018-Jun-30 08:23N 51°53' E 004°17'0 0.0
2018-Jun-30 07:59N 51°53' E 004°17'0 0.0
2018-Jun-30 06:29N 51°53' E 004°17'0 0.0
2018-Jun-30 05:17N 51°53' E 004°17'0 0.0
2018-Jun-30 04:41N 51°53' E 004°17'0 0.0
2018-Jun-30 04:23N 51°53' E 004°17'0 0.0
2018-Jun-30 03:59N 51°53' E 004°17'0 0.0
2018-Jun-30 03:11N 51°53' E 004°17'0 0.0
2018-Jun-30 02:53N 51°53' E 004°17'0 0.0
2018-Jun-30 02:17N 51°53' E 004°17'0 0.0
2018-Jun-30 01:47N 51°53' E 004°17'0 0.0
2018-Jun-30 01:29N 51°53' E 004°17'0 0.0
2018-Jun-30 00:59N 51°53' E 004°17'0 0.0
2018-Jun-30 00:29N 51°53' E 004°17'0 0.0
2018-Jun-29 23:47N 51°53' E 004°17'0 0.0
2018-Jun-29 23:17N 51°53' E 004°17'0 0.0
2018-Jun-29 22:41N 51°53' E 004°17'0 0.0
2018-Jun-29 22:29N 51°53' E 004°17'0 0.0
2018-Jun-29 21:53N 51°53' E 004°17'0 0.0
2018-Jun-29 21:29N 51°53' E 004°17'0 0.0
2018-Jun-29 20:59N 51°53' E 004°17'0 0.0
2018-Jun-29 20:23N 51°53' E 004°17'0 0.0
2018-Jun-29 19:35N 51°53' E 004°17'0 0.0
2018-Jun-29 19:11N 51°53' E 004°17'0 0.1
2018-Jun-29 18:59N 51°53' E 004°17'0 0.0
2018-Jun-29 18:23N 51°53' E 004°17'0 0.0
2018-Jun-29 17:41N 51°53' E 004°17'0 0.0
2018-Jun-29 17:29N 51°53' E 004°17'0 0.0
2018-Jun-29 16:59N 51°53' E 004°17'0 0.0
2018-Jun-29 16:20N 51°53' E 004°17'0 0.0
2018-Jun-29 15:41N 51°53' E 004°17'0 0.0
2018-Jun-29 15:29N 51°53' E 004°17'0 0.0
2018-Jun-29 14:59N 51°53' E 004°17'0 0.0
2018-Jun-29 14:26N 51°53' E 004°17'0 0.0
2018-Jun-29 13:44N 51°53' E 004°17'0 0.0
2018-Jun-29 11:53N 51°53' E 004°17'0 0.0
2018-Jun-29 11:17N 51°53' E 004°17'0 0.0
2018-Jun-29 10:53N 51°53' E 004°17'  

Dump ship's entire track history